Time,TemperatureF,DewpointF,PressureIn,WindDirection,WindDirectionDegrees,WindSpeedMPH,WindSpeedGustMPH,Humidity,HourlyPrecipIn,Conditions,Clouds,dailyrainin,SoftwareType,DateUTC
2013-08-04 00:06:00,60.4,50.9,30.09,North,-999,0.0,3.6,71,0.00,,,-99.99,FreeWX 2.05,2013-08-03 23:06:00,
2013-08-04 00:12:00,60.4,51.4,30.06,North,-999,0.0,0.0,72,0.00,,,-99.99,FreeWX 2.05,2013-08-03 23:12:00,
2013-08-04 00:17:00,60.4,51.4,30.06,North,-999,0.0,0.0,72,0.00,,,-99.99,FreeWX 2.05,2013-08-03 23:17:00,
2013-08-04 00:27:00,60.3,51.3,30.06,North,-999,0.0,0.0,72,0.00,,,-99.99,FreeWX 2.05,2013-08-03 23:27:00,
2013-08-04 00:32:00,60.1,51.4,30.06,North,-999,0.0,0.0,73,0.00,,,-99.99,FreeWX 2.05,2013-08-03 23:32:00,
2013-08-04 00:37:00,60.1,51.4,30.06,North,-999,0.0,0.0,73,0.00,,,-99.99,FreeWX 2.05,2013-08-03 23:37:00,
2013-08-04 00:42:00,59.9,51.3,30.09,North,-999,0.0,0.0,73,0.00,,,-99.99,FreeWX 2.05,2013-08-03 23:42:00,
2013-08-04 00:52:00,59.7,51.4,30.09,North,-999,0.0,0.0,74,0.00,,,-99.99,FreeWX 2.05,2013-08-03 23:52:00,
2013-08-04 00:57:00,59.5,51.3,30.09,North,-999,0.0,0.0,74,0.00,,,-99.99,FreeWX 2.05,2013-08-03 23:57:00,
2013-08-04 01:02:00,59.5,51.6,30.09,North,-999,0.0,3.1,75,0.00,,,-99.99,FreeWX 2.05,2013-08-04 00:02:00,
2013-08-04 01:07:00,59.5,51.6,30.09,North,-999,0.0,0.0,75,0.00,,,-99.99,FreeWX 2.05,2013-08-04 00:07:00,
2013-08-04 01:17:00,59.4,51.8,30.06,North,-999,0.0,0.0,76,0.00,,,-99.99,FreeWX 2.05,2013-08-04 00:17:00,
2013-08-04 01:22:00,59.4,51.8,30.06,North,-999,0.0,0.0,76,0.00,,,-99.99,FreeWX 2.05,2013-08-04 00:22:00,
2013-08-04 01:27:00,59.4,51.8,30.09,North,-999,0.0,3.6,76,0.00,,,-99.99,FreeWX 2.05,2013-08-04 00:27:00,
2013-08-04 01:32:00,59.2,52.0,30.09,North,-999,0.0,0.0,77,0.00,,,-99.99,FreeWX 2.05,2013-08-04 00:32:00,
2013-08-04 01:37:00,59.2,52.0,30.09,North,-999,0.0,3.6,77,0.00,,,-99.99,FreeWX 2.05,2013-08-04 00:37:00,
2013-08-04 01:47:00,59.2,52.3,30.09,North,-999,0.0,0.0,78,0.00,,,-99.99,FreeWX 2.05,2013-08-04 00:47:00,
2013-08-04 01:57:00,59.4,52.9,30.09,North,-999,0.0,3.6,79,0.00,,,-99.99,FreeWX 2.05,2013-08-04 00:57:00,
2013-08-04 02:02:00,59.4,53.2,30.09,SSW,199,1.0,4.5,80,0.00,,,-99.99,FreeWX 2.05,2013-08-04 01:02:00,
2013-08-04 02:12:00,59.5,53.8,30.09,North,-999,0.0,4.0,81,0.00,,,-99.99,FreeWX 2.05,2013-08-04 01:12:00,
2013-08-04 02:17:00,59.5,53.8,30.09,South,186,1.0,4.5,81,0.00,,,-99.99,FreeWX 2.05,2013-08-04 01:17:00,
2013-08-04 02:27:00,59.4,53.8,30.06,North,-999,0.0,4.9,82,0.00,,,-99.99,FreeWX 2.05,2013-08-04 01:27:00,
2013-08-04 02:37:00,59.2,53.6,30.06,North,-999,0.0,4.0,82,0.00,,,-99.99,FreeWX 2.05,2013-08-04 01:37:00,
2013-08-04 02:42:00,59.0,53.4,30.06,North,-999,0.0,0.0,82,0.00,,,-99.99,FreeWX 2.05,2013-08-04 01:42:00,
2013-08-04 02:47:00,59.0,53.4,30.06,North,-999,0.0,0.0,82,0.00,,,-99.99,FreeWX 2.05,2013-08-04 01:47:00,
2013-08-04 02:57:00,58.8,53.6,30.06,North,-999,0.0,0.0,83,0.00,,,-99.99,FreeWX 2.05,2013-08-04 01:57:00,
2013-08-04 03:07:00,58.6,53.4,30.06,North,-999,0.0,0.0,83,0.00,,,-99.99,FreeWX 2.05,2013-08-04 02:07:00,
2013-08-04 03:11:00,58.5,53.2,30.06,North,-999,0.0,0.0,83,0.00,,,-99.99,FreeWX 2.05,2013-08-04 02:11:00,
2013-08-04 03:17:00,58.3,53.1,30.06,North,-999,0.0,0.0,83,0.00,,,-99.99,FreeWX 2.05,2013-08-04 02:17:00,
2013-08-04 03:22:00,58.3,53.1,30.06,North,-999,0.0,0.0,83,0.00,,,-99.99,FreeWX 2.05,2013-08-04 02:22:00,
2013-08-04 03:27:00,58.3,53.1,30.06,North,-999,0.0,3.1,83,0.00,,,-99.99,FreeWX 2.05,2013-08-04 02:27:00,
2013-08-04 03:37:00,58.1,52.9,30.06,North,-999,0.0,0.0,83,0.00,,,-99.99,FreeWX 2.05,2013-08-04 02:37:00,
2013-08-04 03:47:00,58.5,53.6,30.06,North,-999,0.0,2.7,84,0.00,,,-99.99,FreeWX 2.05,2013-08-04 02:47:00,
2013-08-04 03:52:00,58.6,53.8,30.06,North,-999,0.0,3.1,84,0.00,,,-99.99,FreeWX 2.05,2013-08-04 02:52:00,
2013-08-04 04:02:00,58.8,54.3,30.06,North,-999,0.0,0.0,85,0.00,,,-99.99,FreeWX 2.05,2013-08-04 03:02:00,
2013-08-04 04:07:00,58.8,54.3,30.06,North,-999,0.0,4.5,85,0.00,,,-99.99,FreeWX 2.05,2013-08-04 03:07:00,
2013-08-04 04:12:00,59.0,54.5,30.06,North,-999,0.0,3.6,85,0.00,,,-99.99,FreeWX 2.05,2013-08-04 03:12:00,
2013-08-04 04:22:00,59.2,55.0,30.06,North,-999,0.0,4.0,86,0.00,,,-99.99,FreeWX 2.05,2013-08-04 03:22:00,
2013-08-04 04:27:00,59.2,55.0,30.06,North,-999,0.0,3.1,86,0.00,,,-99.99,FreeWX 2.05,2013-08-04 03:27:00,
2013-08-04 04:36:00,59.4,55.2,30.06,North,-999,0.0,0.0,86,0.00,,,-99.99,FreeWX 2.05,2013-08-04 03:36:00,
2013-08-04 04:41:00,59.4,55.4,30.06,North,-999,0.0,0.0,87,0.00,,,-99.99,FreeWX 2.05,2013-08-04 03:41:00,
2013-08-04 04:52:00,59.4,55.4,30.06,North,-999,0.0,0.0,87,0.00,,,-99.99,FreeWX 2.05,2013-08-04 03:52:00,
2013-08-04 04:57:00,59.2,55.2,30.06,North,-999,0.0,4.5,87,0.00,,,-99.99,FreeWX 2.05,2013-08-04 03:57:00,
2013-08-04 05:02:00,59.2,55.2,30.06,North,-999,0.0,2.7,87,0.00,,,-99.99,FreeWX 2.05,2013-08-04 04:02:00,
2013-08-04 05:07:00,59.0,55.2,30.06,North,-999,0.0,0.0,87,0.00,,,-99.99,FreeWX 2.05,2013-08-04 04:07:00,
2013-08-04 05:12:00,59.0,55.2,30.06,North,-999,0.0,0.0,87,0.00,,,-99.99,FreeWX 2.05,2013-08-04 04:12:00,
2013-08-04 05:17:00,58.8,55.0,30.06,North,-999,0.0,0.0,87,0.00,,,-99.99,FreeWX 2.05,2013-08-04 04:17:00,
2013-08-04 05:22:00,58.8,55.0,30.06,North,-999,0.0,0.0,87,0.00,,,-99.99,FreeWX 2.05,2013-08-04 04:22:00,
2013-08-04 05:26:00,58.8,55.0,30.09,North,-999,0.0,4.0,87,0.00,,,-99.99,FreeWX 2.05,2013-08-04 04:26:00,
2013-08-04 05:31:00,58.8,55.2,30.09,North,-999,0.0,4.0,88,0.00,,,-99.99,FreeWX 2.05,2013-08-04 04:31:00,
2013-08-04 05:37:00,58.8,55.2,30.09,North,-999,0.0,3.6,88,0.00,,,-99.99,FreeWX 2.05,2013-08-04 04:37:00,
2013-08-04 05:47:00,59.0,55.4,30.06,North,-999,0.0,4.5,88,0.00,,,-99.99,FreeWX 2.05,2013-08-04 04:47:00,
2013-08-04 05:52:00,59.2,55.6,30.06,North,-999,0.0,0.0,88,0.00,,,-99.99,FreeWX 2.05,2013-08-04 04:52:00,
2013-08-04 05:57:00,59.2,55.6,30.06,North,-999,0.0,3.6,88,0.00,,,-99.99,FreeWX 2.05,2013-08-04 04:57:00,
2013-08-04 06:07:00,59.4,56.1,30.06,North,-999,0.0,0.0,89,0.00,,,-99.99,FreeWX 2.05,2013-08-04 05:07:00,
2013-08-04 06:12:00,59.4,56.1,30.09,North,-999,0.0,3.6,89,0.00,,,-99.99,FreeWX 2.05,2013-08-04 05:12:00,
2013-08-04 06:17:00,59.4,56.1,30.09,North,-999,0.0,6.7,89,0.00,,,-99.99,FreeWX 2.05,2013-08-04 05:17:00,
2013-08-04 06:27:00,59.4,56.5,30.09,SE,133,1.0,4.9,90,0.00,,,-99.99,FreeWX 2.05,2013-08-04 05:27:00,
2013-08-04 06:37:00,59.7,56.8,30.09,North,-999,0.0,4.9,90,0.00,,,-99.99,FreeWX 2.05,2013-08-04 05:37:00,
2013-08-04 06:42:00,59.9,57.0,30.09,SE,139,1.0,4.5,90,0.00,,,-99.99,FreeWX 2.05,2013-08-04 05:42:00,
2013-08-04 06:47:00,60.1,57.2,30.09,SE,127,1.0,3.6,90,0.00,,,-99.99,FreeWX 2.05,2013-08-04 05:47:00,
2013-08-04 06:52:00,60.4,57.7,30.09,ESE,123,1.0,4.9,91,0.00,,,-99.99,FreeWX 2.05,2013-08-04 05:52:00,
2013-08-04 06:57:00,60.6,57.9,30.09,SSE,150,1.0,4.9,91,0.00,,,-99.99,FreeWX 2.05,2013-08-04 05:57:00,
2013-08-04 07:07:00,61.0,58.3,30.09,SSE,166,2.0,5.8,91,0.00,,,-99.99,FreeWX 2.05,2013-08-04 06:07:00,
2013-08-04 07:17:00,61.2,58.5,30.09,SSE,167,2.0,4.5,91,0.00,,,-99.99,FreeWX 2.05,2013-08-04 06:17:00,
2013-08-04 07:22:00,61.3,58.6,30.09,SSE,163,2.0,6.7,91,0.00,,,-99.99,FreeWX 2.05,2013-08-04 06:22:00,
2013-08-04 07:31:00,62.1,59.4,30.09,SSE,149,2.0,5.4,91,0.00,,,-99.99,FreeWX 2.05,2013-08-04 06:31:00,
2013-08-04 07:37:00,62.4,59.7,30.09,SE,141,2.0,6.7,91,0.00,,,-99.99,FreeWX 2.05,2013-08-04 06:37:00,
2013-08-04 07:42:00,62.6,59.9,30.09,South,169,3.0,8.7,91,0.00,,,-99.99,FreeWX 2.05,2013-08-04 06:42:00,
2013-08-04 07:52:00,63.1,60.4,30.09,South,176,2.0,5.8,91,0.00,,,-99.99,FreeWX 2.05,2013-08-04 06:52:00,
2013-08-04 07:56:00,63.5,60.8,30.09,South,188,3.0,6.9,91,0.00,,,-99.99,FreeWX 2.05,2013-08-04 06:56:00,
2013-08-04 08:01:00,63.5,60.4,30.09,South,181,3.0,7.4,90,0.00,,,-99.99,FreeWX 2.05,2013-08-04 07:01:00,
2013-08-04 08:06:00,63.5,60.4,30.09,South,177,4.0,6.7,90,0.00,,,-99.99,FreeWX 2.05,2013-08-04 07:06:00,
2013-08-04 08:12:00,63.5,60.3,30.09,South,175,3.0,6.3,89,0.00,,,-99.99,FreeWX 2.05,2013-08-04 07:12:00,
2013-08-04 08:22:00,63.9,60.3,30.09,SSE,164,2.0,6.7,88,0.00,,,-99.99,FreeWX 2.05,2013-08-04 07:22:00,
2013-08-04 08:32:00,64.0,60.4,30.09,South,180,2.0,6.9,88,0.00,,,-99.99,FreeWX 2.05,2013-08-04 07:32:00,
2013-08-04 08:42:00,64.6,60.6,30.09,South,185,3.0,8.7,87,0.00,,,-99.99,FreeWX 2.05,2013-08-04 07:42:00,
2013-08-04 08:52:00,65.7,61.3,30.09,SSW,192,3.0,6.7,86,0.00,,,-99.99,FreeWX 2.05,2013-08-04 07:52:00,
2013-08-04 08:57:00,66.2,61.5,30.09,South,179,2.0,6.3,85,0.00,,,-99.99,FreeWX 2.05,2013-08-04 07:57:00,
2013-08-04 09:02:00,66.4,61.0,30.09,South,174,2.0,6.7,83,0.00,,,-99.99,FreeWX 2.05,2013-08-04 08:02:00,
2013-08-04 09:11:00,67.3,61.0,30.09,SSW,199,3.0,6.9,80,0.00,,,-99.99,FreeWX 2.05,2013-08-04 08:11:00,
2013-08-04 09:17:00,67.8,59.9,30.09,SSW,194,4.0,8.3,76,0.00,,,-99.99,FreeWX 2.05,2013-08-04 08:17:00,
2013-08-04 09:32:00,68.7,58.1,30.09,South,188,4.0,7.8,69,0.00,,,-99.99,FreeWX 2.05,2013-08-04 08:32:00,
2013-08-04 09:37:00,68.9,57.0,30.09,SSW,199,4.0,6.9,66,0.00,,,-99.99,FreeWX 2.05,2013-08-04 08:37:00,
2013-08-04 09:47:00,69.4,54.9,30.09,SSW,197,5.0,9.6,60,0.00,,,-99.99,FreeWX 2.05,2013-08-04 08:47:00,
2013-08-04 09:57:00,70.2,52.2,30.09,SSW,193,5.0,8.7,53,0.00,,,-99.99,FreeWX 2.05,2013-08-04 08:57:00,
2013-08-04 10:02:00,70.0,51.6,30.09,South,174,4.0,7.4,52,0.00,,,-99.99,FreeWX 2.05,2013-08-04 09:02:00,
2013-08-04 10:11:00,70.2,51.6,30.09,South,177,4.0,9.6,52,0.00,,,-99.99,FreeWX 2.05,2013-08-04 09:11:00,
2013-08-04 10:17:00,70.3,51.8,30.09,South,176,4.0,8.3,52,0.00,,,-99.99,FreeWX 2.05,2013-08-04 09:17:00,
2013-08-04 10:27:00,70.5,51.4,30.09,South,181,5.0,10.1,51,0.00,,,-99.99,FreeWX 2.05,2013-08-04 09:27:00,
2013-08-04 10:37:00,71.2,52.2,30.09,South,178,4.0,8.3,51,0.00,,,-99.99,FreeWX 2.05,2013-08-04 09:37:00,
2013-08-04 10:47:00,70.9,49.1,30.09,South,190,5.0,11.2,46,0.00,,,-99.99,FreeWX 2.05,2013-08-04 09:47:00,
2013-08-04 10:52:00,70.9,49.6,30.09,SSW,206,4.0,7.8,47,0.00,,,-99.99,FreeWX 2.05,2013-08-04 09:52:00,
2013-08-04 10:57:00,71.1,49.3,30.09,SSW,211,4.0,7.8,46,0.00,,,-99.99,FreeWX 2.05,2013-08-04 09:57:00,
2013-08-04 11:07:00,72.1,50.2,30.09,South,188,4.0,8.3,46,0.00,,,-99.99,FreeWX 2.05,2013-08-04 10:07:00,
2013-08-04 11:16:00,72.5,48.7,30.09,South,189,5.0,8.3,43,0.00,,,-99.99,FreeWX 2.05,2013-08-04 10:16:00,
2013-08-04 11:22:00,72.9,48.4,30.09,South,187,4.0,9.2,42,0.00,,,-99.99,FreeWX 2.05,2013-08-04 10:22:00,
2013-08-04 11:32:00,74.1,49.5,30.06,South,173,5.0,9.6,42,0.00,,,-99.99,FreeWX 2.05,2013-08-04 10:32:00,
2013-08-04 11:37:00,73.9,46.8,30.06,SSE,165,5.0,9.2,38,0.00,,,-99.99,FreeWX 2.05,2013-08-04 10:37:00,
2013-08-04 11:47:00,73.6,47.1,30.06,South,174,4.0,7.8,39,0.00,,,-99.99,FreeWX 2.05,2013-08-04 10:47:00,
2013-08-04 11:52:00,73.4,46.9,30.06,South,183,4.0,8.7,39,0.00,,,-99.99,FreeWX 2.05,2013-08-04 10:52:00,
2013-08-04 11:57:00,73.6,47.8,30.09,South,191,4.0,9.2,40,0.00,,,-99.99,FreeWX 2.05,2013-08-04 10:57:00,
2013-08-04 12:07:00,73.9,48.0,30.09,South,189,4.0,9.6,40,0.00,,,-99.99,FreeWX 2.05,2013-08-04 11:07:00,
2013-08-04 12:12:00,73.9,46.8,30.06,South,182,4.0,7.4,38,0.00,,,-99.99,FreeWX 2.05,2013-08-04 11:12:00,
2013-08-04 12:17:00,74.5,47.8,30.06,South,180,4.0,8.7,39,0.00,,,-99.99,FreeWX 2.05,2013-08-04 11:17:00,
2013-08-04 12:27:00,73.9,46.8,30.06,SSW,200,5.0,9.6,38,0.00,,,-99.99,FreeWX 2.05,2013-08-04 11:27:00,
2013-08-04 12:37:00,74.5,45.7,30.06,SSE,167,5.0,9.2,36,0.00,,,-99.99,FreeWX 2.05,2013-08-04 11:37:00,
2013-08-04 12:47:00,74.5,45.0,30.06,SSE,168,5.0,8.3,35,0.00,,,-99.99,FreeWX 2.05,2013-08-04 11:47:00,
2013-08-04 12:52:00,74.3,44.8,30.06,South,177,5.0,8.7,35,0.00,,,-99.99,FreeWX 2.05,2013-08-04 11:52:00,
2013-08-04 12:56:00,74.5,45.7,30.06,South,184,5.0,8.7,36,0.00,,,-99.99,FreeWX 2.05,2013-08-04 11:56:00,
2013-08-04 13:02:00,74.8,46.0,30.06,South,174,5.0,8.7,36,0.00,,,-99.99,FreeWX 2.05,2013-08-04 12:02:00,
2013-08-04 13:11:00,74.8,46.0,30.06,South,171,4.0,6.9,36,0.00,,,-99.99,FreeWX 2.05,2013-08-04 12:11:00,
2013-08-04 13:17:00,74.7,45.1,30.06,South,173,4.0,8.7,35,0.00,,,-99.99,FreeWX 2.05,2013-08-04 12:17:00,
2013-08-04 13:27:00,74.3,45.7,30.06,South,174,4.0,9.2,36,0.00,,,-99.99,FreeWX 2.05,2013-08-04 12:27:00,
2013-08-04 13:37:00,74.7,45.9,30.06,SSW,194,4.0,8.3,36,0.00,,,-99.99,FreeWX 2.05,2013-08-04 12:37:00,
2013-08-04 13:47:00,74.8,46.8,30.06,South,173,5.0,7.4,37,0.00,,,-99.99,FreeWX 2.05,2013-08-04 12:47:00,
2013-08-04 13:52:00,75.2,46.4,30.06,South,191,4.0,7.4,36,0.00,,,-99.99,FreeWX 2.05,2013-08-04 12:52:00,
2013-08-04 13:57:00,75.2,46.4,30.06,South,182,5.0,10.5,36,0.00,,,-99.99,FreeWX 2.05,2013-08-04 12:57:00,
2013-08-04 14:02:00,75.4,47.3,30.06,South,184,5.0,11.0,37,0.00,,,-99.99,FreeWX 2.05,2013-08-04 13:02:00,
2013-08-04 14:17:00,75.4,46.6,30.06,South,191,4.0,9.2,36,0.00,,,-99.99,FreeWX 2.05,2013-08-04 13:17:00,
2013-08-04 14:22:00,74.8,45.3,30.06,South,187,4.0,9.6,35,0.00,,,-99.99,FreeWX 2.05,2013-08-04 13:22:00,
2013-08-04 14:32:00,74.7,46.6,30.06,South,174,4.0,6.9,37,0.00,,,-99.99,FreeWX 2.05,2013-08-04 13:32:00,
2013-08-04 14:37:00,74.8,47.5,30.06,South,189,4.0,8.7,38,0.00,,,-99.99,FreeWX 2.05,2013-08-04 13:37:00,
2013-08-04 14:47:00,75.0,47.7,30.06,South,180,4.0,8.3,38,0.00,,,-99.99,FreeWX 2.05,2013-08-04 13:47:00,
2013-08-04 14:52:00,74.7,48.0,30.06,South,179,4.0,9.2,39,0.00,,,-99.99,FreeWX 2.05,2013-08-04 13:52:00,
2013-08-04 14:57:00,74.3,47.7,30.06,South,174,5.0,9.6,39,0.00,,,-99.99,FreeWX 2.05,2013-08-04 13:57:00,
2013-08-04 15:07:00,74.1,48.9,30.06,South,175,4.0,6.9,41,0.00,,,-99.99,FreeWX 2.05,2013-08-04 14:07:00,
2013-08-04 15:16:00,74.3,49.1,30.06,South,177,4.0,8.3,41,0.00,,,-99.99,FreeWX 2.05,2013-08-04 14:16:00,
2013-08-04 15:27:00,74.3,49.6,30.06,South,189,4.0,7.4,42,0.00,,,-99.99,FreeWX 2.05,2013-08-04 14:27:00,
2013-08-04 15:36:00,73.9,48.7,30.06,South,186,4.0,9.2,41,0.00,,,-99.99,FreeWX 2.05,2013-08-04 14:36:00,
2013-08-04 15:48:00,74.5,49.3,30.06,South,180,5.0,9.6,41,0.00,,,-99.99,FreeWX 2.05,2013-08-04 14:48:00,
2013-08-04 15:53:00,74.7,49.5,30.06,South,176,5.0,8.3,41,0.00,,,-99.99,FreeWX 2.05,2013-08-04 14:53:00,
2013-08-04 16:08:00,75.0,48.4,30.06,South,186,5.0,9.2,39,0.00,,,-99.99,FreeWX 2.05,2013-08-04 15:08:00,
2013-08-04 16:18:00,75.4,47.3,30.03,South,191,4.0,7.8,37,0.00,,,-99.99,FreeWX 2.05,2013-08-04 15:18:00,
2013-08-04 16:27:00,74.8,46.8,30.03,SSW,204,4.0,10.1,37,0.00,,,-99.99,FreeWX 2.05,2013-08-04 15:27:00,
2013-08-04 16:33:00,74.7,47.3,30.03,SSW,197,4.0,11.2,38,0.00,,,-99.99,FreeWX 2.05,2013-08-04 15:33:00,
2013-08-04 16:38:00,74.5,47.8,30.03,SSW,202,5.0,8.7,39,0.00,,,-99.99,FreeWX 2.05,2013-08-04 15:38:00,
2013-08-04 16:43:00,74.7,48.0,30.03,SSW,205,5.0,8.7,39,0.00,,,-99.99,FreeWX 2.05,2013-08-04 15:43:00,
2013-08-04 16:48:00,74.5,47.8,30.03,SSW,194,4.0,7.8,39,0.00,,,-99.99,FreeWX 2.05,2013-08-04 15:48:00,
2013-08-04 16:52:00,74.3,49.1,30.03,SSW,193,5.0,11.2,41,0.00,,,-99.99,FreeWX 2.05,2013-08-04 15:52:00,
2013-08-04 16:58:00,73.9,48.7,30.03,SSW,202,5.0,10.1,41,0.00,,,-99.99,FreeWX 2.05,2013-08-04 15:58:00,
2013-08-04 17:08:00,73.6,48.4,30.03,South,187,5.0,8.7,41,0.00,,,-99.99,FreeWX 2.05,2013-08-04 16:08:00,
2013-08-04 17:13:00,73.4,48.2,30.03,SSW,198,5.0,8.3,41,0.00,,,-99.99,FreeWX 2.05,2013-08-04 16:13:00,
2013-08-04 17:23:00,73.2,48.0,30.03,SW,218,4.0,8.7,41,0.00,,,-99.99,FreeWX 2.05,2013-08-04 16:23:00,
2013-08-04 17:33:00,73.0,47.8,30.03,SSW,196,4.0,8.3,41,0.00,,,-99.99,FreeWX 2.05,2013-08-04 16:33:00,
2013-08-04 17:38:00,72.9,47.8,30.03,SSW,192,4.0,8.7,41,0.00,,,-99.99,FreeWX 2.05,2013-08-04 16:38:00,
2013-08-04 17:47:00,72.7,47.7,30.03,South,176,4.0,6.7,41,0.00,,,-99.99,FreeWX 2.05,2013-08-04 16:47:00,
2013-08-04 17:53:00,72.5,47.5,30.03,South,187,3.0,6.9,41,0.00,,,-99.99,FreeWX 2.05,2013-08-04 16:53:00,
2013-08-04 18:03:00,72.3,47.8,30.03,South,180,3.0,5.8,42,0.00,,,-99.99,FreeWX 2.05,2013-08-04 17:03:00,
2013-08-04 18:08:00,72.5,48.7,30.03,SSW,207,3.0,7.8,43,0.00,,,-99.99,FreeWX 2.05,2013-08-04 17:08:00,
2013-08-04 18:18:00,72.3,47.8,30.03,SSW,202,4.0,11.0,42,0.00,,,-99.99,FreeWX 2.05,2013-08-04 17:18:00,
2013-08-04 18:23:00,72.0,48.2,30.03,South,183,4.0,6.3,43,0.00,,,-99.99,FreeWX 2.05,2013-08-04 17:23:00,
2013-08-04 18:33:00,71.6,47.8,30.03,South,176,3.0,6.7,43,0.00,,,-99.99,FreeWX 2.05,2013-08-04 17:33:00,
2013-08-04 18:38:00,71.6,47.8,30.03,South,183,3.0,6.9,43,0.00,,,-99.99,FreeWX 2.05,2013-08-04 17:38:00,
2013-08-04 18:53:00,71.2,48.7,30.03,South,186,4.0,7.8,45,0.00,,,-99.99,FreeWX 2.05,2013-08-04 17:53:00,
2013-08-04 19:03:00,70.9,49.1,30.03,South,185,3.0,6.9,46,0.00,,,-99.99,FreeWX 2.05,2013-08-04 18:03:00,
2013-08-04 19:13:00,70.7,49.5,30.03,SSW,207,2.0,6.3,47,0.00,,,-99.99,FreeWX 2.05,2013-08-04 18:13:00,
2013-08-04 19:17:00,70.5,49.8,30.03,SSW,206,2.0,9.2,48,0.00,,,-99.99,FreeWX 2.05,2013-08-04 18:17:00,
2013-08-04 19:28:00,70.2,50.2,30.03,South,191,3.0,6.7,49,0.00,,,-99.99,FreeWX 2.05,2013-08-04 18:28:00,
2013-08-04 19:33:00,70.2,50.2,30.03,SSW,192,3.0,6.3,49,0.00,,,-99.99,FreeWX 2.05,2013-08-04 18:33:00,
2013-08-04 19:38:00,70.0,50.5,30.03,South,181,2.0,5.4,50,0.00,,,-99.99,FreeWX 2.05,2013-08-04 18:38:00,
2013-08-04 19:48:00,69.6,50.7,30.03,South,178,2.0,6.3,51,0.00,,,-99.99,FreeWX 2.05,2013-08-04 18:48:00,
2013-08-04 19:53:00,69.4,51.1,30.03,South,190,3.0,6.7,52,0.00,,,-99.99,FreeWX 2.05,2013-08-04 18:53:00,
2013-08-04 20:03:00,69.1,51.3,30.03,SSE,157,2.0,5.4,53,0.00,,,-99.99,FreeWX 2.05,2013-08-04 19:03:00,
2013-08-04 20:08:00,68.9,52.0,30.03,SSE,161,2.0,5.4,55,0.00,,,-99.99,FreeWX 2.05,2013-08-04 19:08:00,
2013-08-04 20:13:00,68.7,51.8,30.03,SSE,160,2.0,4.9,55,0.00,,,-99.99,FreeWX 2.05,2013-08-04 19:13:00,
2013-08-04 20:23:00,68.4,52.0,30.03,SSE,160,2.0,7.4,56,0.00,,,-99.99,FreeWX 2.05,2013-08-04 19:23:00,
2013-08-04 20:33:00,68.2,51.8,30.03,SSE,168,1.0,4.9,56,0.00,,,-99.99,FreeWX 2.05,2013-08-04 19:33:00,
2013-08-04 20:38:00,68.0,52.2,30.03,South,184,1.0,4.0,57,0.00,,,-99.99,FreeWX 2.05,2013-08-04 19:38:00,
2013-08-04 20:48:00,67.8,52.0,30.03,SSE,165,2.0,4.9,57,0.00,,,-99.99,FreeWX 2.05,2013-08-04 19:48:00,
2013-08-04 20:52:00,67.6,51.8,30.03,South,169,2.0,6.3,57,0.00,,,-99.99,FreeWX 2.05,2013-08-04 19:52:00,
2013-08-04 21:02:00,67.3,52.0,30.03,South,181,2.0,5.4,58,0.00,,,-99.99,FreeWX 2.05,2013-08-04 20:02:00,
2013-08-04 21:08:00,67.3,52.0,30.03,SSE,164,2.0,5.8,58,0.00,,,-99.99,FreeWX 2.05,2013-08-04 20:08:00,
2013-08-04 21:13:00,67.1,52.3,30.03,SE,128,2.0,6.9,59,0.00,,,-99.99,FreeWX 2.05,2013-08-04 20:13:00,
2013-08-04 21:28:00,66.6,52.7,30.03,SSE,164,2.0,5.8,61,0.00,,,-99.99,FreeWX 2.05,2013-08-04 20:28:00,
2013-08-04 21:38:00,66.2,52.7,30.03,SSE,154,2.0,6.3,62,0.00,,,-99.99,FreeWX 2.05,2013-08-04 20:38:00,
2013-08-04 21:48:00,65.8,52.9,30.03,SSE,161,3.0,5.4,63,0.00,,,-99.99,FreeWX 2.05,2013-08-04 20:48:00,
2013-08-04 21:52:00,65.7,52.7,30.03,SSE,153,2.0,6.3,63,0.00,,,-99.99,FreeWX 2.05,2013-08-04 20:52:00,
2013-08-04 22:03:00,65.5,53.1,30.03,South,170,2.0,4.9,64,0.00,,,-99.99,FreeWX 2.05,2013-08-04 21:03:00,
2013-08-04 22:13:00,65.3,52.9,30.03,SSE,153,2.0,5.8,64,0.00,,,-99.99,FreeWX 2.05,2013-08-04 21:13:00,
2013-08-04 22:18:00,65.3,53.2,30.03,SSE,159,2.0,5.4,65,0.00,,,-99.99,FreeWX 2.05,2013-08-04 21:18:00,
2013-08-04 22:23:00,65.3,53.2,30.03,SSE,166,3.0,6.7,65,0.00,,,-99.99,FreeWX 2.05,2013-08-04 21:23:00,
2013-08-04 22:28:00,65.1,53.1,30.03,SSE,156,2.0,5.4,65,0.00,,,-99.99,FreeWX 2.05,2013-08-04 21:28:00,
2013-08-04 22:38:00,65.1,53.4,30.03,SE,130,2.0,4.9,66,0.00,,,-99.99,FreeWX 2.05,2013-08-04 21:38:00,
2013-08-04 22:48:00,65.1,53.4,30.03,SSE,154,2.0,6.7,66,0.00,,,-99.99,FreeWX 2.05,2013-08-04 21:48:00,
2013-08-04 22:58:00,64.9,53.8,30.03,SSE,156,3.0,6.9,67,0.00,,,-99.99,FreeWX 2.05,2013-08-04 21:58:00,
2013-08-04 23:03:00,64.9,53.8,30.03,SSE,165,3.0,6.3,67,0.00,,,-99.99,FreeWX 2.05,2013-08-04 22:03:00,
2013-08-04 23:08:00,64.9,53.8,30.03,South,175,2.0,4.9,67,0.00,,,-99.99,FreeWX 2.05,2013-08-04 22:08:00,
2013-08-04 23:20:00,64.8,54.0,30.03,SSE,153,2.0,5.8,68,0.00,,,-99.99,FreeWX 2.05,2013-08-04 22:20:00,
2013-08-04 23:28:00,64.8,54.0,30.03,SSE,163,2.0,6.7,68,0.00,,,-99.99,FreeWX 2.05,2013-08-04 22:28:00,
2013-08-04 23:33:00,64.6,54.1,30.03,SSE,162,2.0,4.5,69,0.00,,,-99.99,FreeWX 2.05,2013-08-04 22:33:00,
2013-08-04 23:38:00,64.6,54.1,30.03,SSE,147,2.0,6.3,69,0.00,,,-99.99,FreeWX 2.05,2013-08-04 22:38:00,
2013-08-04 23:48:00,64.6,54.1,30.00,North,-999,0.0,0.0,69,0.00,,,-99.99,FreeWX 2.05,2013-08-04 22:48:00,